sensor_id;sensor_type;location;lat;lon;timestamp;pressure;altitude;pressure_sealevel;temperature;humidity
19112;BME280;9688;51.906;8.376;2023-03-12T00:00:40;100435.69;;;1.65;93.53
19112;BME280;9688;51.906;8.376;2023-03-12T00:03:26;100436.53;;;1.67;93.74
19112;BME280;9688;51.906;8.376;2023-03-12T00:06:18;100433.94;;;1.67;93.05
19112;BME280;9688;51.906;8.376;2023-03-12T00:09:03;100430.44;;;1.70;93.57
19112;BME280;9688;51.906;8.376;2023-03-12T00:11:49;100434.75;;;1.74;93.62
19112;BME280;9688;51.906;8.376;2023-03-12T00:14:37;100433.84;;;1.79;93.69
19112;BME280;9688;51.906;8.376;2023-03-12T00:17:23;100432.97;;;1.84;93.87
19112;BME280;9688;51.906;8.376;2023-03-12T00:20:11;100432.06;;;1.88;93.22
19112;BME280;9688;51.906;8.376;2023-03-12T00:23:03;100426.88;;;1.89;93.34
19112;BME280;9688;51.906;8.376;2023-03-12T00:25:49;100425.13;;;1.91;93.69
19112;BME280;9688;51.906;8.376;2023-03-12T00:28:35;100427.72;;;1.91;93.87
19112;BME280;9688;51.906;8.376;2023-03-12T00:31:23;100419.03;;;1.91;94.04
19112;BME280;9688;51.906;8.376;2023-03-12T00:34:10;100425.97;;;1.92;93.94
19112;BME280;9688;51.906;8.376;2023-03-12T00:36:55;100423.38;;;1.92;93.68
19112;BME280;9688;51.906;8.376;2023-03-12T00:39:43;100425.13;;;1.90;94.69
19112;BME280;9688;51.906;8.376;2023-03-12T00:42:29;100420.75;;;1.90;94.46
19112;BME280;9688;51.906;8.376;2023-03-12T00:45:15;100412.97;;;1.89;94.04
19112;BME280;9688;51.906;8.376;2023-03-12T00:48:01;100421.66;;;1.89;94.19
19112;BME280;9688;51.906;8.376;2023-03-12T00:50:47;100418.16;;;1.90;93.97
19112;BME280;9688;51.906;8.376;2023-03-12T00:53:32;100414.69;;;1.90;93.96
19112;BME280;9688;51.906;8.376;2023-03-12T00:56:19;100411.22;;;1.92;93.96
19112;BME280;9688;51.906;8.376;2023-03-12T00:59:04;100411.19;;;1.94;93.92
19112;BME280;9688;51.906;8.376;2023-03-12T01:01:50;100402.50;;;1.93;94.04
19112;BME280;9688;51.906;8.376;2023-03-12T01:04:35;100398.16;;;1.92;93.79
19112;BME280;9688;51.906;8.376;2023-03-12T01:07:21;100404.28;;;1.91;94.01
19112;BME280;9688;51.906;8.376;2023-03-12T01:10:08;100392.09;;;1.90;94.19
19112;BME280;9688;51.906;8.376;2023-03-12T01:12:55;100386.03;;;1.91;94.25
19112;BME280;9688;51.906;8.376;2023-03-12T01:15:41;100386.88;;;1.90;94.52
19112;BME280;9688;51.906;8.376;2023-03-12T01:18:30;100381.66;;;1.90;94.15
19112;BME280;9688;51.906;8.376;2023-03-12T01:21:16;100380.81;;;1.90;94.40
19112;BME280;9688;51.906;8.376;2023-03-12T01:24:01;100377.38;;;1.85;93.99
19112;BME280;9688;51.906;8.376;2023-03-12T01:26:46;100369.56;;;1.82;94.67
19112;BME280;9688;51.906;8.376;2023-03-12T01:29:34;100380.00;;;1.77;94.21
19112;BME280;9688;51.906;8.376;2023-03-12T01:32:19;100374.81;;;1.74;94.22
19112;BME280;9688;51.906;8.376;2023-03-12T01:35:05;100367.91;;;1.68;94.50
19112;BME280;9688;51.906;8.376;2023-03-12T01:37:51;100361.88;;;1.65;94.25
19112;BME280;9688;51.906;8.376;2023-03-12T01:40:39;100361.00;;;1.63;93.98
19112;BME280;9688;51.906;8.376;2023-03-12T01:43:29;100366.25;;;1.58;94.54
19112;BME280;9688;51.906;8.376;2023-03-12T01:46:22;100373.22;;;1.53;94.47
19112;BME280;9688;51.906;8.376;2023-03-12T01:49:10;100371.50;;;1.53;94.36
19112;BME280;9688;51.906;8.376;2023-03-12T01:51:59;100368.03;;;1.53;94.50
19112;BME280;9688;51.906;8.376;2023-03-12T01:54:49;100367.16;;;1.52;94.26
19112;BME280;9688;51.906;8.376;2023-03-12T01:57:40;100360.19;;;1.54;94.24
19112;BME280;9688;51.906;8.376;2023-03-12T02:00:27;100359.31;;;1.57;94.22
19112;BME280;9688;51.906;8.376;2023-03-12T02:03:15;100365.38;;;1.59;94.39
19112;BME280;9688;51.906;8.376;2023-03-12T02:06:03;100355.78;;;1.63;94.28
19112;BME280;9688;51.906;8.376;2023-03-12T02:08:51;100362.72;;;1.65;94.04
19112;BME280;9688;51.906;8.376;2023-03-12T02:11:37;100360.09;;;1.68;94.12
19112;BME280;9688;51.906;8.376;2023-03-12T02:14:23;100360.09;;;1.70;93.73
19112;BME280;9688;51.906;8.376;2023-03-12T02:17:09;100351.41;;;1.71;93.74
19112;BME280;9688;51.906;8.376;2023-03-12T02:20:06;100349.66;;;1.73;93.70
19112;BME280;9688;51.906;8.376;2023-03-12T02:23:01;100344.44;;;1.71;93.99
19112;BME280;9688;51.906;8.376;2023-03-12T02:25:51;100343.59;;;1.72;94.24
19112;BME280;9688;51.906;8.376;2023-03-12T02:28:41;100338.34;;;1.75;94.15
19112;BME280;9688;51.906;8.376;2023-03-12T02:31:33;100348.75;;;1.78;94.11
19112;BME280;9688;51.906;8.376;2023-03-12T02:34:19;100342.69;;;1.76;94.05
19112;BME280;9688;51.906;8.376;2023-03-12T02:37:04;100340.97;;;1.75;93.89
19112;BME280;9688;51.906;8.376;2023-03-12T02:39:54;100340.09;;;1.73;94.08
19112;BME280;9688;51.906;8.376;2023-03-12T02:42:43;100340.09;;;1.73;94.21
19112;BME280;9688;51.906;8.376;2023-03-12T02:45:29;100327.94;;;1.74;94.50
19112;BME280;9688;51.906;8.376;2023-03-12T02:48:14;100327.03;;;1.76;94.04
19112;BME280;9688;51.906;8.376;2023-03-12T02:51:00;100335.72;;;1.78;94.33
19112;BME280;9688;51.906;8.376;2023-03-12T02:53:46;100328.75;;;1.79;94.07
19112;BME280;9688;51.906;8.376;2023-03-12T02:56:37;100332.28;;;1.75;94.22
19112;BME280;9688;51.906;8.376;2023-03-12T02:59:25;100324.50;;;1.72;94.58
19112;BME280;9688;51.906;8.376;2023-03-12T03:02:11;100327.09;;;1.72;94.57
19112;BME280;9688;51.906;8.376;2023-03-12T03:04:57;100324.47;;;1.73;94.34
19112;BME280;9688;51.906;8.376;2023-03-12T03:07:42;100324.50;;;1.72;94.19
19112;BME280;9688;51.906;8.376;2023-03-12T03:10:28;100325.38;;;1.69;94.44
19112;BME280;9688;51.906;8.376;2023-03-12T03:13:14;100320.16;;;1.68;94.56
19112;BME280;9688;51.906;8.376;2023-03-12T03:16:01;100325.38;;;1.66;94.58
19112;BME280;9688;51.906;8.376;2023-03-12T03:18:47;100320.19;;;1.65;94.94
19112;BME280;9688;51.906;8.376;2023-03-12T03:21:33;100319.34;;;1.60;94.81
19112;BME280;9688;51.906;8.376;2023-03-12T03:24:18;100319.38;;;1.56;94.81
19112;BME280;9688;51.906;8.376;2023-03-12T03:27:04;100321.13;;;1.53;94.90
19112;BME280;9688;51.906;8.376;2023-03-12T03:29:49;100315.97;;;1.50;94.93
19112;BME280;9688;51.906;8.376;2023-03-12T03:32:37;100316.84;;;1.47;94.76
19112;BME280;9688;51.906;8.376;2023-03-12T03:35:23;100313.38;;;1.45;94.98
19112;BME280;9688;51.906;8.376;2023-03-12T03:38:08;100304.66;;;1.46;94.93
19112;BME280;9688;51.906;8.376;2023-03-12T03:40:54;100299.47;;;1.46;94.88
19112;BME280;9688;51.906;8.376;2023-03-12T03:43:39;100298.63;;;1.44;94.56
19112;BME280;9688;51.906;8.376;2023-03-12T03:46:25;100305.56;;;1.45;94.79
19112;BME280;9688;51.906;8.376;2023-03-12T03:49:12;100305.56;;;1.45;94.58
19112;BME280;9688;51.906;8.376;2023-03-12T03:51:57;100301.22;;;1.47;94.60
19112;BME280;9688;51.906;8.376;2023-03-12T03:54:43;100309.84;;;1.49;94.61
19112;BME280;9688;51.906;8.376;2023-03-12T03:57:28;100302.03;;;1.51;94.69
19112;BME280;9688;51.906;8.376;2023-03-12T04:00:15;100297.69;;;1.51;94.80
19112;BME280;9688;51.906;8.376;2023-03-12T04:03:01;100291.63;;;1.51;94.77
19112;BME280;9688;51.906;8.376;2023-03-12T04:05:54;100288.19;;;1.47;94.93
19112;BME280;9688;51.906;8.376;2023-03-12T04:08:39;100280.38;;;1.47;95.20
19112;BME280;9688;51.906;8.376;2023-03-12T04:11:25;100282.09;;;1.48;94.53
19112;BME280;9688;51.906;8.376;2023-03-12T04:14:11;100279.50;;;1.50;94.98
19112;BME280;9688;51.906;8.376;2023-03-12T04:16:56;100281.19;;;1.54;94.74
19112;BME280;9688;51.906;8.376;2023-03-12T04:19:41;100277.69;;;1.56;94.74
19112;BME280;9688;51.906;8.376;2023-03-12T04:22:32;100275.06;;;1.60;94.68
19112;BME280;9688;51.906;8.376;2023-03-12T04:25:17;100288.06;;;1.64;94.69
19112;BME280;9688;51.906;8.376;2023-03-12T04:28:06;100280.19;;;1.69;94.26
19112;BME280;9688;51.906;8.376;2023-03-12T04:30:55;100275.81;;;1.74;94.42
19112;BME280;9688;51.906;8.376;2023-03-12T04:33:42;100271.47;;;1.77;94.49
19112;BME280;9688;51.906;8.376;2023-03-12T04:36:28;100267.94;;;1.82;94.32
19112;BME280;9688;51.906;8.376;2023-03-12T04:39:17;100261.84;;;1.84;94.01
19112;BME280;9688;51.906;8.376;2023-03-12T04:42:03;100259.22;;;1.84;93.94
19112;BME280;9688;51.906;8.376;2023-03-12T04:44:49;100244.44;;;1.88;94.19
19112;BME280;9688;51.906;8.376;2023-03-12T04:47:36;100247.88;;;1.94;94.34
19112;BME280;9688;51.906;8.376;2023-03-12T04:50:22;100243.44;;;1.99;94.06
19112;BME280;9688;51.906;8.376;2023-03-12T04:53:07;100239.09;;;2.03;93.66
19112;BME280;9688;51.906;8.376;2023-03-12T04:55:54;100239.91;;;2.08;92.99
19112;BME280;9688;51.906;8.376;2023-03-12T04:58:40;100245.91;;;2.13;93.60
19112;BME280;9688;51.906;8.376;2023-03-12T05:01:29;100249.38;;;2.17;93.09
19112;BME280;9688;51.906;8.376;2023-03-12T05:04:15;100234.59;;;2.17;93.03
19112;BME280;9688;51.906;8.376;2023-03-12T05:07:01;100241.56;;;2.15;93.05
19112;BME280;9688;51.906;8.376;2023-03-12T05:09:47;100241.59;;;2.14;92.96
19112;BME280;9688;51.906;8.376;2023-03-12T05:12:34;100232.91;;;2.12;93.25
19112;BME280;9688;51.906;8.376;2023-03-12T05:15:20;100227.69;;;2.10;92.71
19112;BME280;9688;51.906;8.376;2023-03-12T05:18:06;100225.97;;;2.08;92.77
19112;BME280;9688;51.906;8.376;2023-03-12T05:20:57;100223.41;;;2.05;92.73
19112;BME280;9688;51.906;8.376;2023-03-12T05:23:44;100215.63;;;2.03;92.38
19112;BME280;9688;51.906;8.376;2023-03-12T05:26:31;100221.72;;;2.00;92.51
19112;BME280;9688;51.906;8.376;2023-03-12T05:29:19;100223.44;;;2.01;92.56
19112;BME280;9688;51.906;8.376;2023-03-12T05:32:05;100216.47;;;2.04;92.77
19112;BME280;9688;51.906;8.376;2023-03-12T05:34:51;100214.72;;;2.06;92.84
19112;BME280;9688;51.906;8.376;2023-03-12T05:37:37;100207.78;;;2.06;91.98
19112;BME280;9688;51.906;8.376;2023-03-12T05:40:25;100200.81;;;2.08;92.30
19112;BME280;9688;51.906;8.376;2023-03-12T05:43:11;100192.94;;;2.10;92.08
19112;BME280;9688;51.906;8.376;2023-03-12T05:45:59;100190.34;;;2.11;91.89
19112;BME280;9688;51.906;8.376;2023-03-12T05:48:45;100188.56;;;2.15;91.88
19112;BME280;9688;51.906;8.376;2023-03-12T05:51:31;100185.00;;;2.19;91.85
19112;BME280;9688;51.906;8.376;2023-03-12T05:54:17;100175.44;;;2.22;91.64
19112;BME280;9688;51.906;8.376;2023-03-12T05:57:02;100172.78;;;2.24;91.83
19112;BME280;9688;51.906;8.376;2023-03-12T05:59:48;100164.97;;;2.24;91.47
19112;BME280;9688;51.906;8.376;2023-03-12T06:02:37;100164.97;;;2.24;91.74
19112;BME280;9688;51.906;8.376;2023-03-12T06:05:23;100167.56;;;2.26;91.65
19112;BME280;9688;51.906;8.376;2023-03-12T06:08:09;100158.84;;;2.28;91.33
19112;BME280;9688;51.906;8.376;2023-03-12T06:10:54;100161.41;;;2.30;91.22
19112;BME280;9688;51.906;8.376;2023-03-12T06:13:40;100162.28;;;2.33;91.37
19112;BME280;9688;51.906;8.376;2023-03-12T06:16:26;100161.34;;;2.37;91.37
19112;BME280;9688;51.906;8.376;2023-03-12T06:19:13;100149.06;;;2.45;90.86
19112;BME280;9688;51.906;8.376;2023-03-12T06:21:59;100148.97;;;2.53;91.26
19112;BME280;9688;51.906;8.376;2023-03-12T06:24:45;100149.75;;;2.60;90.57
19112;BME280;9688;51.906;8.376;2023-03-12T06:27:31;100147.03;;;2.66;90.28
19112;BME280;9688;51.906;8.376;2023-03-12T06:30:17;100146.13;;;2.68;89.87
19112;BME280;9688;51.906;8.376;2023-03-12T06:33:03;100146.94;;;2.75;90.41
19112;BME280;9688;51.906;8.376;2023-03-12T06:35:54;100136.41;;;2.80;89.97
19112;BME280;9688;51.906;8.376;2023-03-12T06:38:39;100137.19;;;2.86;89.53
19112;BME280;9688;51.906;8.376;2023-03-12T06:41:25;100121.47;;;2.89;89.85
19112;BME280;9688;51.906;8.376;2023-03-12T06:44:10;100114.47;;;2.93;89.66
19112;BME280;9688;51.906;8.376;2023-03-12T06:46:56;100123.97;;;2.97;89.35
19112;BME280;9688;51.906;8.376;2023-03-12T06:49:42;100116.97;;;3.01;89.53
19112;BME280;9688;51.906;8.376;2023-03-12T06:52:31;100105.59;;;3.03;89.33
19112;BME280;9688;51.906;8.376;2023-03-12T06:55:17;100114.97;;;3.17;89.30
19112;BME280;9688;51.906;8.376;2023-03-12T06:58:03;100111.22;;;3.31;88.49
19112;BME280;9688;51.906;8.376;2023-03-12T07:00:49;100105.81;;;3.42;88.71
19112;BME280;9688;51.906;8.376;2023-03-12T07:03:35;100114.31;;;3.55;88.01
19112;BME280;9688;51.906;8.376;2023-03-12T07:06:22;100114.09;;;3.67;87.68
19112;BME280;9688;51.906;8.376;2023-03-12T07:09:09;100113.91;;;3.76;87.18
19112;BME280;9688;51.906;8.376;2023-03-12T07:11:54;100112.91;;;3.84;86.94
19112;BME280;9688;51.906;8.376;2023-03-12T07:14:40;100114.47;;;3.92;87.61
19112;BME280;9688;51.906;8.376;2023-03-12T07:17:26;100110.81;;;4.02;86.99
19112;BME280;9688;51.906;8.376;2023-03-12T07:20:13;100114.19;;;4.08;86.65
19112;BME280;9688;51.906;8.376;2023-03-12T07:22:59;100127.97;;;4.16;85.68
19112;BME280;9688;51.906;8.376;2023-03-12T07:25:46;100118.25;;;4.22;86.14
19112;BME280;9688;51.906;8.376;2023-03-12T07:28:32;100120.78;;;4.25;86.05
19112;BME280;9688;51.906;8.376;2023-03-12T07:31:18;100106.72;;;4.31;86.45
19112;BME280;9688;51.906;8.376;2023-03-12T07:34:03;100111.88;;;4.34;85.32
19112;BME280;9688;51.906;8.376;2023-03-12T07:36:49;100105.69;;;4.38;85.92
19112;BME280;9688;51.906;8.376;2023-03-12T07:39:35;100109.09;;;4.42;85.31
19112;BME280;9688;51.906;8.376;2023-03-12T07:42:22;100110.88;;;4.40;85.00
19112;BME280;9688;51.906;8.376;2023-03-12T07:45:08;100111.88;;;4.36;84.92
19112;BME280;9688;51.906;8.376;2023-03-12T07:47:54;100104.88;;;4.35;85.37
19112;BME280;9688;51.906;8.376;2023-03-12T07:50:40;100096.09;;;4.39;85.34
19112;BME280;9688;51.906;8.376;2023-03-12T07:53:26;100087.19;;;4.47;85.13
19112;BME280;9688;51.906;8.376;2023-03-12T07:56:11;100081.69;;;4.58;85.09
19112;BME280;9688;51.906;8.376;2023-03-12T07:58:58;100070.31;;;4.61;85.06
19112;BME280;9688;51.906;8.376;2023-03-12T08:01:43;100072.75;;;4.68;84.59
19112;BME280;9688;51.906;8.376;2023-03-12T08:04:28;100070.00;;;4.75;84.41
19112;BME280;9688;51.906;8.376;2023-03-12T08:07:14;100069.06;;;4.77;83.96
19112;BME280;9688;51.906;8.376;2023-03-12T08:10:05;100065.28;;;4.87;83.32
19112;BME280;9688;51.906;8.376;2023-03-12T08:12:51;100066.91;;;4.93;83.11
19112;BME280;9688;51.906;8.376;2023-03-12T08:15:38;100063.16;;;5.05;83.09
19112;BME280;9688;51.906;8.376;2023-03-12T08:18:24;100063.91;;;5.10;82.94
19112;BME280;9688;51.906;8.376;2023-03-12T08:21:09;100061.22;;;5.11;82.99
19112;BME280;9688;51.906;8.376;2023-03-12T08:23:55;100067.31;;;5.12;83.61
19112;BME280;9688;51.906;8.376;2023-03-12T08:26:41;100061.16;;;5.14;83.93
19112;BME280;9688;51.906;8.376;2023-03-12T08:29:27;100062.75;;;5.20;83.61
19112;BME280;9688;51.906;8.376;2023-03-12T08:32:15;100050.22;;;5.31;83.27
19112;BME280;9688;51.906;8.376;2023-03-12T08:35:01;100048.97;;;5.46;82.91
19112;BME280;9688;51.906;8.376;2023-03-12T08:37:49;100045.06;;;5.61;82.54
19112;BME280;9688;51.906;8.376;2023-03-12T08:40:35;100042.16;;;5.72;82.48
19112;BME280;9688;51.906;8.376;2023-03-12T08:43:21;100043.78;;;5.76;82.36
19112;BME280;9688;51.906;8.376;2023-03-12T08:46:06;100044.66;;;5.76;81.39
19112;BME280;9688;51.906;8.376;2023-03-12T08:48:53;100049.19;;;5.71;81.57
19112;BME280;9688;51.906;8.376;2023-03-12T08:51:39;100053.69;;;5.66;82.51
19112;BME280;9688;51.906;8.376;2023-03-12T08:54:25;100055.31;;;5.70;81.77
19112;BME280;9688;51.906;8.376;2023-03-12T08:57:11;100056.00;;;5.77;81.82
19112;BME280;9688;51.906;8.376;2023-03-12T08:59:56;100057.59;;;5.82;81.79
19112;BME280;9688;51.906;8.376;2023-03-12T09:02:43;100053.22;;;5.81;82.21
19112;BME280;9688;51.906;8.376;2023-03-12T09:05:31;100055.00;;;5.81;81.92
19112;BME280;9688;51.906;8.376;2023-03-12T09:08:17;100059.38;;;5.82;82.99
19112;BME280;9688;51.906;8.376;2023-03-12T09:11:03;100053.16;;;5.85;82.58
19112;BME280;9688;51.906;8.376;2023-03-12T09:13:48;100055.84;;;5.83;82.28
19112;BME280;9688;51.906;8.376;2023-03-12T09:16:34;100054.91;;;5.84;83.07
19112;BME280;9688;51.906;8.376;2023-03-12T09:19:20;100051.34;;;5.87;83.45
19112;BME280;9688;51.906;8.376;2023-03-12T09:22:07;100040.75;;;5.91;83.81
19112;BME280;9688;51.906;8.376;2023-03-12T09:24:53;100052.09;;;5.92;83.54
19112;BME280;9688;51.906;8.376;2023-03-12T09:27:41;100045.22;;;5.88;83.57
19112;BME280;9688;51.906;8.376;2023-03-12T09:30:27;100051.66;;;5.76;84.15
19112;BME280;9688;51.906;8.376;2023-03-12T09:33:14;100053.53;;;5.71;85.34
19112;BME280;9688;51.906;8.376;2023-03-12T09:36:02;100047.53;;;5.67;85.38
19112;BME280;9688;51.906;8.376;2023-03-12T09:38:51;100048.56;;;5.62;85.80
19112;BME280;9688;51.906;8.376;2023-03-12T09:41:38;100051.44;;;5.52;86.42
19112;BME280;9688;51.906;8.376;2023-03-12T09:44:30;100037.94;;;5.33;88.05
19112;BME280;9688;51.906;8.376;2023-03-12T09:47:24;100031.47;;;5.14;88.23
19112;BME280;9688;51.906;8.376;2023-03-12T09:50:18;100029.94;;;5.05;89.00
19112;BME280;9688;51.906;8.376;2023-03-12T09:53:10;100041.44;;;5.00;89.92
19112;BME280;9688;51.906;8.376;2023-03-12T09:56:02;100020.50;;;5.00;90.25
19112;BME280;9688;51.906;8.376;2023-03-12T09:58:53;100021.19;;;5.06;91.21
19112;BME280;9688;51.906;8.376;2023-03-12T10:01:43;100026.59;;;5.00;92.03
19112;BME280;9688;51.906;8.376;2023-03-12T10:04:40;100016.38;;;4.89;91.53
19112;BME280;9688;51.906;8.376;2023-03-12T10:07:31;100011.56;;;4.73;93.13
19112;BME280;9688;51.906;8.376;2023-03-12T10:10:34;100011.03;;;4.58;93.64
19112;BME280;9688;51.906;8.376;2023-03-12T10:13:46;99996.28;;;4.54;94.95
19112;BME280;9688;51.906;8.376;2023-03-12T10:16:47;99993.78;;;4.50;94.26
19112;BME280;9688;51.906;8.376;2023-03-12T10:19:50;99984.94;;;4.55;95.30
19112;BME280;9688;51.906;8.376;2023-03-12T10:22:48;99970.69;;;4.65;95.94
19112;BME280;9688;51.906;8.376;2023-03-12T10:25:40;99972.28;;;4.73;95.76
19112;BME280;9688;51.906;8.376;2023-03-12T10:28:30;99978.38;;;4.73;96.03
19112;BME280;9688;51.906;8.376;2023-03-12T10:31:23;99987.16;;;4.70;97.18
19112;BME280;9688;51.906;8.376;2023-03-12T10:34:14;99980.91;;;4.76;97.11
19112;BME280;9688;51.906;8.376;2023-03-12T10:37:04;99979.09;;;4.80;97.86
19112;BME280;9688;51.906;8.376;2023-03-12T10:39:54;99992.13;;;4.81;98.36
19112;BME280;9688;51.906;8.376;2023-03-12T10:42:40;99992.19;;;4.80;98.35
19112;BME280;9688;51.906;8.376;2023-03-12T10:45:33;99990.53;;;4.76;98.00
19112;BME280;9688;51.906;8.376;2023-03-12T10:48:24;99994.94;;;4.74;98.77
19112;BME280;9688;51.906;8.376;2023-03-12T10:51:11;99986.06;;;4.79;99.36
19112;BME280;9688;51.906;8.376;2023-03-12T10:53:57;99984.25;;;4.83;99.68
19112;BME280;9688;51.906;8.376;2023-03-12T10:56:47;99984.09;;;4.89;99.52
19112;BME280;9688;51.906;8.376;2023-03-12T10:59:35;99990.09;;;4.92;99.74
19112;BME280;9688;51.906;8.376;2023-03-12T11:02:32;99984.94;;;4.91;100.00
19112;BME280;9688;51.906;8.376;2023-03-12T11:05:22;99980.63;;;4.88;100.00
19112;BME280;9688;51.906;8.376;2023-03-12T11:08:19;99980.72;;;4.84;100.00
19112;BME280;9688;51.906;8.376;2023-03-12T11:11:07;99973.72;;;4.84;100.00
19112;BME280;9688;51.906;8.376;2023-03-12T11:14:05;99968.47;;;4.86;100.00
19112;BME280;9688;51.906;8.376;2023-03-12T11:16:52;99964.00;;;4.89;100.00
19112;BME280;9688;51.906;8.376;2023-03-12T11:19:38;99969.16;;;4.92;100.00
19112;BME280;9688;51.906;8.376;2023-03-12T11:22:31;99964.72;;;4.96;100.00
19112;BME280;9688;51.906;8.376;2023-03-12T11:25:21;99953.25;;;5.00;100.00
19112;BME280;9688;51.906;8.376;2023-03-12T11:28:12;99964.47;;;5.05;100.00
19112;BME280;9688;51.906;8.376;2023-03-12T11:31:05;99954.81;;;5.07;100.00
19112;BME280;9688;51.906;8.376;2023-03-12T11:34:04;99957.44;;;5.07;100.00
19112;BME280;9688;51.906;8.376;2023-03-12T11:37:02;99960.72;;;5.14;100.00
19112;BME280;9688;51.906;8.376;2023-03-12T11:40:04;99961.59;;;5.14;100.00
19112;BME280;9688;51.906;8.376;2023-03-12T11:43:06;99965.06;;;5.15;100.00
19112;BME280;9688;51.906;8.376;2023-03-12T11:46:09;99957.94;;;5.20;100.00
19112;BME280;9688;51.906;8.376;2023-03-12T11:49:08;99957.00;;;5.23;100.00
19112;BME280;9688;51.906;8.376;2023-03-12T11:52:02;99959.41;;;5.30;100.00
19112;BME280;9688;51.906;8.376;2023-03-12T11:55:09;99957.63;;;5.32;100.00
19112;BME280;9688;51.906;8.376;2023-03-12T11:58:16;99944.34;;;5.39;100.00
19112;BME280;9688;51.906;8.376;2023-03-12T12:01:09;99946.88;;;5.42;100.00
19112;BME280;9688;51.906;8.376;2023-03-12T12:07:13;99937.31;;;5.41;100.00
19112;BME280;9688;51.906;8.376;2023-03-12T12:10:12;99929.28;;;5.45;100.00
19112;BME280;9688;51.906;8.376;2023-03-12T12:13:08;99915.16;;;5.51;100.00
19112;BME280;9688;51.906;8.376;2023-03-12T12:16:01;99921.22;;;5.53;100.00
19112;BME280;9688;51.906;8.376;2023-03-12T12:19:00;99914.94;;;5.58;100.00
19112;BME280;9688;51.906;8.376;2023-03-12T12:22:05;99914.75;;;5.65;100.00
19112;BME280;9688;51.906;8.376;2023-03-12T12:25:13;99915.53;;;5.68;100.00
19112;BME280;9688;51.906;8.376;2023-03-12T12:28:20;99910.09;;;5.74;100.00
19112;BME280;9688;51.906;8.376;2023-03-12T12:31:20;99900.13;;;5.86;100.00
19112;BME280;9688;51.906;8.376;2023-03-12T12:34:22;99897.41;;;5.89;100.00
19112;BME280;9688;51.906;8.376;2023-03-12T12:40:35;99903.94;;;6.05;100.00
19112;BME280;9688;51.906;8.376;2023-03-12T12:43:25;99880.88;;;6.15;100.00
19112;BME280;9688;51.906;8.376;2023-03-12T12:46:15;99891.00;;;6.27;100.00
19112;BME280;9688;51.906;8.376;2023-03-12T12:49:07;99882.78;;;6.38;100.00
19112;BME280;9688;51.906;8.376;2023-03-12T12:51:57;99872.91;;;6.44;100.00
19112;BME280;9688;51.906;8.376;2023-03-12T12:54:54;99883.97;;;6.54;100.00
19112;BME280;9688;51.906;8.376;2023-03-12T12:57:50;99887.19;;;6.62;100.00
19112;BME280;9688;51.906;8.376;2023-03-12T13:00:44;99885.00;;;6.75;100.00
19112;BME280;9688;51.906;8.376;2023-03-12T13:03:31;99877.47;;;6.89;100.00
19112;BME280;9688;51.906;8.376;2023-03-12T13:06:16;99883.16;;;7.02;100.00
19112;BME280;9688;51.906;8.376;2023-03-12T13:09:13;99875.88;;;7.10;100.00
19112;BME280;9688;51.906;8.376;2023-03-12T13:12:06;99873.94;;;7.15;100.00
19112;BME280;9688;51.906;8.376;2023-03-12T13:14:55;99856.03;;;7.25;100.00
19112;BME280;9688;51.906;8.376;2023-03-12T13:18:00;99865.34;;;7.34;100.00
19112;BME280;9688;51.906;8.376;2023-03-12T13:21:16;99866.69;;;7.46;100.00
19112;BME280;9688;51.906;8.376;2023-03-12T13:24:10;99861.78;;;7.58;100.00
19112;BME280;9688;51.906;8.376;2023-03-12T13:27:02;99867.50;;;7.70;100.00
19112;BME280;9688;51.906;8.376;2023-03-12T13:29:55;99868.75;;;7.83;100.00
19112;BME280;9688;51.906;8.376;2023-03-12T13:33:04;99874.69;;;7.88;100.00
19112;BME280;9688;51.906;8.376;2023-03-12T13:36:05;99871.69;;;7.97;100.00
19112;BME280;9688;51.906;8.376;2023-03-12T13:38:58;99873.84;;;8.10;100.00
19112;BME280;9688;51.906;8.376;2023-03-12T13:41:46;99868.13;;;8.20;100.00
19112;BME280;9688;51.906;8.376;2023-03-12T13:44:37;99868.84;;;8.24;100.00
19112;BME280;9688;51.906;8.376;2023-03-12T13:47:28;99852.97;;;8.25;100.00
19112;BME280;9688;51.906;8.376;2023-03-12T13:50:16;99866.94;;;8.27;100.00
19112;BME280;9688;51.906;8.376;2023-03-12T13:53:03;99858.88;;;8.32;100.00
19112;BME280;9688;51.906;8.376;2023-03-12T13:56:00;99844.59;;;8.38;100.00
19112;BME280;9688;51.906;8.376;2023-03-12T13:58:49;99838.28;;;8.42;100.00
19112;BME280;9688;51.906;8.376;2023-03-12T14:01:42;99831.00;;;8.48;100.00
19112;BME280;9688;51.906;8.376;2023-03-12T14:04:36;99829.03;;;8.54;100.00
19112;BME280;9688;51.906;8.376;2023-03-12T14:07:44;99847.34;;;8.57;100.00
19112;BME280;9688;51.906;8.376;2023-03-12T14:10:39;99849.69;;;8.63;100.00
19112;BME280;9688;51.906;8.376;2023-03-12T14:13:39;99836.41;;;8.66;100.00
19112;BME280;9688;51.906;8.376;2023-03-12T14:16:33;99836.22;;;8.70;100.00
19112;BME280;9688;51.906;8.376;2023-03-12T14:19:25;99841.19;;;8.77;100.00
19112;BME280;9688;51.906;8.376;2023-03-12T14:22:13;99840.06;;;8.82;100.00
19112;BME280;9688;51.906;8.376;2023-03-12T14:25:02;99848.66;;;8.87;100.00
19112;BME280;9688;51.906;8.376;2023-03-12T14:27:50;99850.06;;;8.94;100.00
19112;BME280;9688;51.906;8.376;2023-03-12T14:30:41;99845.44;;;9.00;100.00
19112;BME280;9688;51.906;8.376;2023-03-12T14:33:32;99854.97;;;9.04;100.00
19112;BME280;9688;51.906;8.376;2023-03-12T14:36:19;99851.31;;;9.06;100.00
19112;BME280;9688;51.906;8.376;2023-03-12T14:39:19;99862.72;;;9.07;100.00
19112;BME280;9688;51.906;8.376;2023-03-12T14:42:08;99858.09;;;9.12;100.00
19112;BME280;9688;51.906;8.376;2023-03-12T14:44:58;99862.09;;;9.21;100.00
19112;BME280;9688;51.906;8.376;2023-03-12T14:47:46;99857.47;;;9.26;100.00
19112;BME280;9688;51.906;8.376;2023-03-12T14:50:38;99854.47;;;9.33;100.00
19112;BME280;9688;51.906;8.376;2023-03-12T14:53:26;99855.72;;;9.45;100.00
19112;BME280;9688;51.906;8.376;2023-03-12T14:56:22;99862.19;;;9.57;100.00
19112;BME280;9688;51.906;8.376;2023-03-12T14:59:26;99862.47;;;9.70;100.00
19112;BME280;9688;51.906;8.376;2023-03-12T15:02:18;99859.97;;;9.86;100.00
19112;BME280;9688;51.906;8.376;2023-03-12T15:05:04;99856.81;;;9.96;100.00
19112;BME280;9688;51.906;8.376;2023-03-12T15:08:00;99861.09;;;9.99;100.00
19112;BME280;9688;51.906;8.376;2023-03-12T15:10:47;99874.34;;;9.97;100.00
19112;BME280;9688;51.906;8.376;2023-03-12T15:13:37;99859.16;;;10.02;100.00
19112;BME280;9688;51.906;8.376;2023-03-12T15:16:23;99849.16;;;10.09;100.00